sensor_id;sensor_type;location;lat;lon;timestamp;pressure;altitude;pressure_sealevel;temperature;humidity
59289;BME280;45056;47.602;9.886;2024-01-16T00:01:44;92217.25;;;-0.56;60.50
59289;BME280;45056;47.602;9.886;2024-01-16T00:04:12;92211.91;;;-0.56;60.52
59289;BME280;45056;47.602;9.886;2024-01-16T00:06:40;92215.72;;;-0.57;60.10
59289;BME280;45056;47.602;9.886;2024-01-16T00:09:10;92218.75;;;-0.55;60.19
59289;BME280;45056;47.602;9.886;2024-01-16T00:11:40;92227.16;;;-0.53;60.30
59289;BME280;45056;47.602;9.886;2024-01-16T00:14:08;92229.44;;;-0.51;60.22
59289;BME280;45056;47.602;9.886;2024-01-16T00:16:41;92233.25;;;-0.52;59.87
59289;BME280;45056;47.602;9.886;2024-01-16T00:19:10;92232.09;;;-0.51;59.66
59289;BME280;45056;47.602;9.886;2024-01-16T00:21:39;92236.28;;;-0.50;59.93
59289;BME280;45056;47.602;9.886;2024-01-16T00:24:09;92231.72;;;-0.50;58.94
59289;BME280;45056;47.602;9.886;2024-01-16T00:26:37;92232.88;;;-0.51;58.80
59289;BME280;45056;47.602;9.886;2024-01-16T00:29:05;92229.06;;;-0.53;58.39
59289;BME280;45056;47.602;9.886;2024-01-16T00:31:33;92219.50;;;-0.54;58.46
59289;BME280;45056;47.602;9.886;2024-01-16T00:34:01;92213.41;;;-0.55;58.55
59289;BME280;45056;47.602;9.886;2024-01-16T00:36:29;92229.47;;;-0.55;58.09
59289;BME280;45056;47.602;9.886;2024-01-16T00:38:58;92226.41;;;-0.57;58.16
59289;BME280;45056;47.602;9.886;2024-01-16T00:41:27;92234.03;;;-0.55;58.26
59289;BME280;45056;47.602;9.886;2024-01-16T00:43:55;92237.84;;;-0.56;58.63
59289;BME280;45056;47.602;9.886;2024-01-16T00:46:23;92238.63;;;-0.56;58.62
59289;BME280;45056;47.602;9.886;2024-01-16T00:48:51;92236.31;;;-0.54;58.71
59289;BME280;45056;47.602;9.886;2024-01-16T00:51:19;92243.19;;;-0.53;58.40
59289;BME280;45056;47.602;9.886;2024-01-16T00:53:47;92241.66;;;-0.54;58.16
59289;BME280;45056;47.602;9.886;2024-01-16T00:56:15;92240.53;;;-0.56;58.11
59289;BME280;45056;47.602;9.886;2024-01-16T00:58:44;92245.88;;;-0.56;58.43
59289;BME280;45056;47.602;9.886;2024-01-16T01:01:12;92236.31;;;-0.57;58.43
59289;BME280;45056;47.602;9.886;2024-01-16T01:03:40;92249.31;;;-0.56;58.27
59289;BME280;45056;47.602;9.886;2024-01-16T01:06:08;92254.66;;;-0.56;58.51
59289;BME280;45056;47.602;9.886;2024-01-16T01:08:36;92256.97;;;-0.58;58.31
59289;BME280;45056;47.602;9.886;2024-01-16T01:11:04;92260.00;;;-0.56;58.17
59289;BME280;45056;47.602;9.886;2024-01-16T01:13:32;92261.53;;;-0.55;58.26
59289;BME280;45056;47.602;9.886;2024-01-16T01:16:02;92263.03;;;-0.54;58.29
59289;BME280;45056;47.602;9.886;2024-01-16T01:18:30;92264.56;;;-0.53;58.07
59289;BME280;45056;47.602;9.886;2024-01-16T01:20:58;92253.88;;;-0.53;57.72
59289;BME280;45056;47.602;9.886;2024-01-16T01:23:26;92261.13;;;-0.53;57.89
59289;BME280;45056;47.602;9.886;2024-01-16T01:25:54;92271.06;;;-0.54;57.62
59289;BME280;45056;47.602;9.886;2024-01-16T01:28:22;92269.13;;;-0.53;57.80
59289;BME280;45056;47.602;9.886;2024-01-16T01:30:50;92258.44;;;-0.53;57.44
59289;BME280;45056;47.602;9.886;2024-01-16T01:33:19;92267.63;;;-0.54;57.13
59289;BME280;45056;47.602;9.886;2024-01-16T01:35:47;92269.91;;;-0.56;56.41
59289;BME280;45056;47.602;9.886;2024-01-16T01:38:15;92266.88;;;-0.59;56.60
59289;BME280;45056;47.602;9.886;2024-01-16T01:40:45;92259.63;;;-0.58;56.17
59289;BME280;45056;47.602;9.886;2024-01-16T01:43:17;92262.31;;;-0.58;56.10
59289;BME280;45056;47.602;9.886;2024-01-16T01:45:47;92271.47;;;-0.59;55.81
59289;BME280;45056;47.602;9.886;2024-01-16T01:48:30;92269.94;;;-0.60;56.12
59289;BME280;45056;47.602;9.886;2024-01-16T01:51:01;92270.31;;;-0.62;55.96
59289;BME280;45056;47.602;9.886;2024-01-16T01:53:31;92253.53;;;-0.62;55.94
59289;BME280;45056;47.602;9.886;2024-01-16T01:56:04;92261.56;;;-0.62;55.84
59289;BME280;45056;47.602;9.886;2024-01-16T01:58:36;92262.69;;;-0.63;55.82
59289;BME280;45056;47.602;9.886;2024-01-16T02:01:06;92265.34;;;-0.63;55.91
59289;BME280;45056;47.602;9.886;2024-01-16T02:03:42;92269.16;;;-0.64;55.88
59289;BME280;45056;47.602;9.886;2024-01-16T02:06:12;92264.59;;;-0.67;55.42
59289;BME280;45056;47.602;9.886;2024-01-16T02:08:42;92263.84;;;-0.68;55.50
59289;BME280;45056;47.602;9.886;2024-01-16T02:11:10;92267.28;;;-0.67;55.59
59289;BME280;45056;47.602;9.886;2024-01-16T02:13:38;92277.22;;;-0.68;55.67
59289;BME280;45056;47.602;9.886;2024-01-16T02:16:17;92276.06;;;-0.70;55.37
59289;BME280;45056;47.602;9.886;2024-01-16T02:18:48;92267.66;;;-0.73;55.57
59289;BME280;45056;47.602;9.886;2024-01-16T02:21:18;92263.84;;;-0.71;55.40
59289;BME280;45056;47.602;9.886;2024-01-16T02:23:51;92270.72;;;-0.70;55.92
59289;BME280;45056;47.602;9.886;2024-01-16T02:26:20;92272.63;;;-0.67;55.60
59289;BME280;45056;47.602;9.886;2024-01-16T02:28:48;92266.91;;;-0.66;55.79
59289;BME280;45056;47.602;9.886;2024-01-16T02:31:17;92266.13;;;-0.63;55.73
59289;BME280;45056;47.602;9.886;2024-01-16T02:33:45;92260.00;;;-0.63;55.45
59289;BME280;45056;47.602;9.886;2024-01-16T02:36:13;92266.13;;;-0.63;55.53
59289;BME280;45056;47.602;9.886;2024-01-16T02:38:41;92267.66;;;-0.65;55.21
59289;BME280;45056;47.602;9.886;2024-01-16T02:41:13;92267.28;;;-0.67;55.36
59289;BME280;45056;47.602;9.886;2024-01-16T02:43:42;92260.03;;;-0.67;55.22
59289;BME280;45056;47.602;9.886;2024-01-16T02:46:10;92264.59;;;-0.64;55.40
59289;BME280;45056;47.602;9.886;2024-01-16T02:48:39;92257.72;;;-0.65;55.55
59289;BME280;45056;47.602;9.886;2024-01-16T02:51:09;92257.00;;;-0.69;55.21
59289;BME280;45056;47.602;9.886;2024-01-16T02:53:37;92255.09;;;-0.72;55.51
59289;BME280;45056;47.602;9.886;2024-01-16T02:56:05;92251.28;;;-0.75;55.39
59289;BME280;45056;47.602;9.886;2024-01-16T02:58:35;92255.09;;;-0.76;55.87
59289;BME280;45056;47.602;9.886;2024-01-16T03:01:03;92246.69;;;-0.78;55.88
59289;BME280;45056;47.602;9.886;2024-01-16T03:03:31;92254.72;;;-0.78;56.10
59289;BME280;45056;47.602;9.886;2024-01-16T03:05:59;92256.63;;;-0.75;56.50
59289;BME280;45056;47.602;9.886;2024-01-16T03:08:27;92259.28;;;-0.71;56.71
59289;BME280;45056;47.602;9.886;2024-01-16T03:10:55;92248.97;;;-0.69;56.70
59289;BME280;45056;47.602;9.886;2024-01-16T03:13:23;92258.50;;;-0.68;56.74
59289;BME280;45056;47.602;9.886;2024-01-16T03:15:53;92249.72;;;-0.68;56.90
59289;BME280;45056;47.602;9.886;2024-01-16T03:18:21;92252.75;;;-0.66;56.90
59289;BME280;45056;47.602;9.886;2024-01-16T03:20:48;92248.56;;;-0.67;56.60
59289;BME280;45056;47.602;9.886;2024-01-16T03:23:16;92258.09;;;-0.66;56.81
59289;BME280;45056;47.602;9.886;2024-01-16T03:25:44;92243.59;;;-0.65;56.73
59289;BME280;45056;47.602;9.886;2024-01-16T03:28:12;92238.63;;;-0.63;56.82
59289;BME280;45056;47.602;9.886;2024-01-16T03:30:40;92236.34;;;-0.61;57.41
59289;BME280;45056;47.602;9.886;2024-01-16T03:33:10;92231.00;;;-0.61;57.44
59289;BME280;45056;47.602;9.886;2024-01-16T03:35:38;92233.28;;;-0.60;57.19
59289;BME280;45056;47.602;9.886;2024-01-16T03:38:06;92232.91;;;-0.58;57.43
59289;BME280;45056;47.602;9.886;2024-01-16T03:40:34;92235.94;;;-0.56;57.72
59289;BME280;45056;47.602;9.886;2024-01-16T03:43:02;92235.94;;;-0.56;57.86
59289;BME280;45056;47.602;9.886;2024-01-16T03:45:31;92235.53;;;-0.54;57.95
59289;BME280;45056;47.602;9.886;2024-01-16T03:47:59;92234.03;;;-0.52;58.01
59289;BME280;45056;47.602;9.886;2024-01-16T03:50:29;92232.47;;;-0.49;58.28
59289;BME280;45056;47.602;9.886;2024-01-16T03:52:57;92234.75;;;-0.48;58.43
59289;BME280;45056;47.602;9.886;2024-01-16T03:55:25;92227.91;;;-0.49;58.05
59289;BME280;45056;47.602;9.886;2024-01-16T03:57:53;92242.41;;;-0.50;57.58
59289;BME280;45056;47.602;9.886;2024-01-16T04:00:20;92240.13;;;-0.51;57.66
59289;BME280;45056;47.602;9.886;2024-01-16T04:02:48;92236.69;;;-0.52;57.69
59289;BME280;45056;47.602;9.886;2024-01-16T04:05:16;92235.91;;;-0.52;58.23
59289;BME280;45056;47.602;9.886;2024-01-16T04:07:46;92237.44;;;-0.51;58.33
59289;BME280;45056;47.602;9.886;2024-01-16T04:10:14;92232.09;;;-0.48;58.27
59289;BME280;45056;47.602;9.886;2024-01-16T04:12:42;92237.81;;;-0.46;58.29
59289;BME280;45056;47.602;9.886;2024-01-16T04:15:10;92236.66;;;-0.45;58.71
59289;BME280;45056;47.602;9.886;2024-01-16T04:17:38;92223.66;;;-0.42;58.46
59289;BME280;45056;47.602;9.886;2024-01-16T04:20:06;92227.13;;;-0.42;58.20
59289;BME280;45056;47.602;9.886;2024-01-16T04:22:36;92227.91;;;-0.45;58.45
59289;BME280;45056;47.602;9.886;2024-01-16T04:25:06;92219.88;;;-0.49;58.42
59289;BME280;45056;47.602;9.886;2024-01-16T04:27:34;92230.94;;;-0.50;58.57
59289;BME280;45056;47.602;9.886;2024-01-16T04:30:02;92224.44;;;-0.49;59.08
59289;BME280;45056;47.602;9.886;2024-01-16T04:32:31;92225.22;;;-0.49;58.44
59289;BME280;45056;47.602;9.886;2024-01-16T04:34:59;92237.06;;;-0.50;58.72
59289;BME280;45056;47.602;9.886;2024-01-16T04:37:27;92227.91;;;-0.49;58.63
59289;BME280;45056;47.602;9.886;2024-01-16T04:39:55;92229.78;;;-0.49;58.68
59289;BME280;45056;47.602;9.886;2024-01-16T04:42:25;92237.06;;;-0.50;58.90
59289;BME280;45056;47.602;9.886;2024-01-16T04:44:53;92238.97;;;-0.50;59.12
59289;BME280;45056;47.602;9.886;2024-01-16T04:47:21;92233.63;;;-0.50;59.34
59289;BME280;45056;47.602;9.886;2024-01-16T04:49:49;92232.50;;;-0.53;59.76
59289;BME280;45056;47.602;9.886;2024-01-16T04:52:17;92228.69;;;-0.52;59.44
59289;BME280;45056;47.602;9.886;2024-01-16T04:54:45;92226.38;;;-0.50;59.55
59289;BME280;45056;47.602;9.886;2024-01-16T04:57:13;92230.19;;;-0.51;59.42
59289;BME280;45056;47.602;9.886;2024-01-16T04:59:43;92237.06;;;-0.50;59.65
59289;BME280;45056;47.602;9.886;2024-01-16T05:02:11;92235.53;;;-0.51;59.43
59289;BME280;45056;47.602;9.886;2024-01-16T05:04:40;92235.53;;;-0.51;59.37
59289;BME280;45056;47.602;9.886;2024-01-16T05:07:08;92233.25;;;-0.49;59.36
59289;BME280;45056;47.602;9.886;2024-01-16T05:09:36;92231.72;;;-0.46;59.70
59289;BME280;45056;47.602;9.886;2024-01-16T05:12:05;92230.16;;;-0.44;59.52
59289;BME280;45056;47.602;9.886;2024-01-16T05:14:33;92233.59;;;-0.43;59.49
59289;BME280;45056;47.602;9.886;2024-01-16T05:17:02;92221.78;;;-0.42;59.02
59289;BME280;45056;47.602;9.886;2024-01-16T05:19:31;92221.41;;;-0.44;58.82
59289;BME280;45056;47.602;9.886;2024-01-16T05:21:59;92222.56;;;-0.45;59.07
59289;BME280;45056;47.602;9.886;2024-01-16T05:24:27;92221.78;;;-0.46;59.06
59289;BME280;45056;47.602;9.886;2024-01-16T05:26:55;92214.13;;;-0.47;58.72
59289;BME280;45056;47.602;9.886;2024-01-16T05:29:23;92218.72;;;-0.48;58.40
59289;BME280;45056;47.602;9.886;2024-01-16T05:31:51;92215.69;;;-0.50;58.65
59289;BME280;45056;47.602;9.886;2024-01-16T05:34:20;92201.56;;;-0.50;58.47
59289;BME280;45056;47.602;9.886;2024-01-16T05:36:48;92199.66;;;-0.50;58.55
59289;BME280;45056;47.602;9.886;2024-01-16T05:39:16;92198.13;;;-0.51;58.11
59289;BME280;45056;47.602;9.886;2024-01-16T05:41:44;92195.84;;;-0.52;58.24
59289;BME280;45056;47.602;9.886;2024-01-16T05:44:12;92185.91;;;-0.52;58.33
59289;BME280;45056;47.602;9.886;2024-01-16T05:46:40;92188.59;;;-0.52;57.70
59289;BME280;45056;47.602;9.886;2024-01-16T05:49:08;92184.41;;;-0.53;57.53
59289;BME280;45056;47.602;9.886;2024-01-16T05:51:38;92177.91;;;-0.52;57.73
59289;BME280;45056;47.602;9.886;2024-01-16T05:54:06;92172.56;;;-0.52;57.81
59289;BME280;45056;47.602;9.886;2024-01-16T05:56:34;92175.22;;;-0.52;57.77
59289;BME280;45056;47.602;9.886;2024-01-16T05:59:02;92168.38;;;-0.53;57.80
59289;BME280;45056;47.602;9.886;2024-01-16T06:01:30;92172.94;;;-0.53;57.62
59289;BME280;45056;47.602;9.886;2024-01-16T06:03:58;92161.13;;;-0.56;57.74
59289;BME280;45056;47.602;9.886;2024-01-16T06:06:26;92161.91;;;-0.59;57.68
59289;BME280;45056;47.602;9.886;2024-01-16T06:08:55;92167.63;;;-0.61;57.38
59289;BME280;45056;47.602;9.886;2024-01-16T06:11:29;92160.41;;;-0.64;57.62
59289;BME280;45056;47.602;9.886;2024-01-16T06:13:58;92155.44;;;-0.65;57.76
59289;BME280;45056;47.602;9.886;2024-01-16T06:16:26;92155.44;;;-0.65;57.77
59289;BME280;45056;47.602;9.886;2024-01-16T06:18:56;92150.88;;;-0.68;57.86
59289;BME280;45056;47.602;9.886;2024-01-16T06:21:23;92159.66;;;-0.71;57.99
59289;BME280;45056;47.602;9.886;2024-01-16T06:23:53;92156.97;;;-0.71;58.45
59289;BME280;45056;47.602;9.886;2024-01-16T06:26:22;92152.41;;;-0.71;58.27
59289;BME280;45056;47.602;9.886;2024-01-16T06:28:50;92146.31;;;-0.71;58.38
59289;BME280;45056;47.602;9.886;2024-01-16T06:31:18;92147.06;;;-0.71;58.40
59289;BME280;45056;47.602;9.886;2024-01-16T06:33:47;92143.63;;;-0.71;58.07
59289;BME280;45056;47.602;9.886;2024-01-16T06:36:15;92143.63;;;-0.71;57.89
59289;BME280;45056;47.602;9.886;2024-01-16T06:38:43;92136.75;;;-0.73;57.95
59289;BME280;45056;47.602;9.886;2024-01-16T06:41:11;92135.63;;;-0.71;57.89
59289;BME280;45056;47.602;9.886;2024-01-16T06:43:40;92135.25;;;-0.74;58.25
59289;BME280;45056;47.602;9.886;2024-01-16T06:46:08;92138.69;;;-0.77;58.09
59289;BME280;45056;47.602;9.886;2024-01-16T06:48:37;92139.47;;;-0.80;58.46
59289;BME280;45056;47.602;9.886;2024-01-16T06:51:05;92144.44;;;-0.82;58.20
59289;BME280;45056;47.602;9.886;2024-01-16T06:53:34;92138.72;;;-0.84;58.61
59289;BME280;45056;47.602;9.886;2024-01-16T06:56:02;92138.00;;;-0.88;58.57
59289;BME280;45056;47.602;9.886;2024-01-16T06:58:33;92138.78;;;-0.91;58.85
59289;BME280;45056;47.602;9.886;2024-01-16T07:01:03;92143.34;;;-0.95;58.75
59289;BME280;45056;47.602;9.886;2024-01-16T07:03:32;92140.69;;;-0.99;58.74
59289;BME280;45056;47.602;9.886;2024-01-16T07:06:00;92144.88;;;-0.98;58.93
59289;BME280;45056;47.602;9.886;2024-01-16T07:08:29;92147.56;;;-0.98;59.04
59289;BME280;45056;47.602;9.886;2024-01-16T07:10:57;92146.78;;;-0.98;59.08
59289;BME280;45056;47.602;9.886;2024-01-16T07:13:25;92153.28;;;-0.99;58.85
59289;BME280;45056;47.602;9.886;2024-01-16T07:15:53;92152.53;;;-1.00;59.19
59289;BME280;45056;47.602;9.886;2024-01-16T07:18:22;92142.59;;;-0.99;59.11
59289;BME280;45056;47.602;9.886;2024-01-16T07:20:50;92150.59;;;-0.99;59.04
59289;BME280;45056;47.602;9.886;2024-01-16T07:23:18;92158.63;;;-0.96;59.11
59289;BME280;45056;47.602;9.886;2024-01-16T07:25:46;92157.84;;;-0.96;58.75
59289;BME280;45056;47.602;9.886;2024-01-16T07:28:14;92161.66;;;-0.97;58.80
59289;BME280;45056;47.602;9.886;2024-01-16T07:30:41;92160.13;;;-0.98;59.00
59289;BME280;45056;47.602;9.886;2024-01-16T07:33:09;92158.63;;;-0.96;58.55
59289;BME280;45056;47.602;9.886;2024-01-16T07:35:39;92160.13;;;-0.95;58.53
59289;BME280;45056;47.602;9.886;2024-01-16T07:38:10;92153.28;;;-0.92;58.35
59289;BME280;45056;47.602;9.886;2024-01-16T07:40:38;92160.88;;;-0.91;58.29
59289;BME280;45056;47.602;9.886;2024-01-16T07:43:06;92148.31;;;-0.90;58.17
59289;BME280;45056;47.602;9.886;2024-01-16T07:45:34;92150.97;;;-0.90;58.26
59289;BME280;45056;47.602;9.886;2024-01-16T07:48:03;92143.34;;;-0.88;58.34
59289;BME280;45056;47.602;9.886;2024-01-16T07:50:31;92138.00;;;-0.88;58.03
59289;BME280;45056;47.602;9.886;2024-01-16T07:53:00;92134.16;;;-0.87;58.04
59289;BME280;45056;47.602;9.886;2024-01-16T07:55:28;92137.22;;;-0.85;58.55
59289;BME280;45056;47.602;9.886;2024-01-16T07:57:56;92139.50;;;-0.87;58.49
59289;BME280;45056;47.602;9.886;2024-01-16T08:00:24;92137.22;;;-0.85;58.54
59289;BME280;45056;47.602;9.886;2024-01-16T08:02:54;92136.41;;;-0.75;58.78
59289;BME280;45056;47.602;9.886;2024-01-16T08:05:21;92136.66;;;-0.51;58.88
59289;BME280;45056;47.602;9.886;2024-01-16T08:07:52;92128.44;;;-0.18;58.53
59289;BME280;45056;47.602;9.886;2024-01-16T08:10:21;92132.00;;;0.17;57.91
59289;BME280;45056;47.602;9.886;2024-01-16T08:12:49;92128.59;;;0.55;56.95
59289;BME280;45056;47.602;9.886;2024-01-16T08:15:17;92134.03;;;0.86;55.95
59289;BME280;45056;47.602;9.886;2024-01-16T08:17:45;92136.47;;;1.08;55.61
59289;BME280;45056;47.602;9.886;2024-01-16T08:20:13;92136.25;;;1.29;54.99
59289;BME280;45056;47.602;9.886;2024-01-16T08:22:42;92134.38;;;1.54;54.13
59289;BME280;45056;47.602;9.886;2024-01-16T08:25:10;92135.28;;;1.75;53.47
59289;BME280;45056;47.602;9.886;2024-01-16T08:27:40;92136.22;;;1.88;53.14
59289;BME280;45056;47.602;9.886;2024-01-16T08:30:10;92135.31;;;1.98;52.54
59289;BME280;45056;47.602;9.886;2024-01-16T08:32:38;92135.59;;;2.04;52.19
59289;BME280;45056;47.602;9.886;2024-01-16T08:35:07;92134.91;;;2.00;52.05
59289;BME280;45056;47.602;9.886;2024-01-16T08:37:36;92137.34;;;1.91;52.16
59289;BME280;45056;47.602;9.886;2024-01-16T08:40:04;92130.19;;;1.80;52.40
59289;BME280;45056;47.602;9.886;2024-01-16T08:42:34;92128.06;;;1.68;52.45
59289;BME280;45056;47.602;9.886;2024-01-16T08:45:04;92126.69;;;1.56;52.34
59289;BME280;45056;47.602;9.886;2024-01-16T08:47:32;92121.47;;;1.45;52.23
59289;BME280;45056;47.602;9.886;2024-01-16T08:50:00;92121.22;;;1.36;52.40
59289;BME280;45056;47.602;9.886;2024-01-16T08:52:29;92120.91;;;1.30;52.38
59289;BME280;45056;47.602;9.886;2024-01-16T08:54:57;92129.34;;;1.28;52.32
59289;BME280;45056;47.602;9.886;2024-01-16T08:57:25;92123.22;;;1.28;52.52
59289;BME280;45056;47.602;9.886;2024-01-16T08:59:53;92122.13;;;1.25;52.78
59289;BME280;45056;47.602;9.886;2024-01-16T09:02:23;92119.13;;;1.20;53.12
59289;BME280;45056;47.602;9.886;2024-01-16T09:04:55;92115.41;;;1.10;53.48
59289;BME280;45056;47.602;9.886;2024-01-16T09:07:23;92111.31;;;0.98;54.02
59289;BME280;45056;47.602;9.886;2024-01-16T09:09:51;92113.31;;;0.90;54.28
59289;BME280;45056;47.602;9.886;2024-01-16T09:12:19;92118.38;;;0.84;54.22
59289;BME280;45056;47.602;9.886;2024-01-16T09:14:47;92113.03;;;0.81;54.44
59289;BME280;45056;47.602;9.886;2024-01-16T09:17:15;92123.41;;;0.79;54.70
59289;BME280;45056;47.602;9.886;2024-01-16T09:19:44;92118.06;;;0.75;54.86
59289;BME280;45056;47.602;9.886;2024-01-16T09:22:13;92118.94;;;0.68;54.97
59289;BME280;45056;47.602;9.886;2024-01-16T09:24:42;92114.31;;;0.69;55.44
59289;BME280;45056;47.602;9.886;2024-01-16T09:27:10;92113.13;;;0.74;55.33
59289;BME280;45056;47.602;9.886;2024-01-16T09:29:40;92117.69;;;0.77;55.43
59289;BME280;45056;47.602;9.886;2024-01-16T09:32:08;92105.44;;;0.79;55.47
59289;BME280;45056;47.602;9.886;2024-01-16T09:34:36;92110.78;;;0.79;55.36
59289;BME280;45056;47.602;9.886;2024-01-16T09:37:06;92113.84;;;0.78;54.85
59289;BME280;45056;47.602;9.886;2024-01-16T09:39:34;92115.44;;;0.71;55.23
59289;BME280;45056;47.602;9.886;2024-01-16T09:42:04;92112.78;;;0.71;55.36
59289;BME280;45056;47.602;9.886;2024-01-16T09:44:33;92109.69;;;0.73;55.18
59289;BME280;45056;47.602;9.886;2024-01-16T09:47:02;92111.63;;;0.73;55.22
59289;BME280;45056;47.602;9.886;2024-01-16T09:49:31;92104.75;;;0.71;55.39
59289;BME280;45056;47.602;9.886;2024-01-16T09:51:59;92111.63;;;0.69;55.00
59289;BME280;45056;47.602;9.886;2024-01-16T09:54:29;92110.91;;;0.68;55.14
59289;BME280;45056;47.602;9.886;2024-01-16T09:56:58;92108.88;;;0.76;55.48
59289;BME280;45056;47.602;9.886;2024-01-16T09:59:31;92108.47;;;0.81;54.99
59289;BME280;45056;47.602;9.886;2024-01-16T10:02:00;92101.09;;;0.89;54.79
59289;BME280;45056;47.602;9.886;2024-01-16T10:04:34;92104.06;;;0.98;54.71
59289;BME280;45056;47.602;9.886;2024-01-16T10:07:02;92096.28;;;1.08;54.26
59289;BME280;45056;47.602;9.886;2024-01-16T10:09:33;92097.00;;;1.12;54.16
59289;BME280;45056;47.602;9.886;2024-01-16T10:12:02;92095.75;;;1.20;54.35
59289;BME280;45056;47.602;9.886;2024-01-16T10:14:30;92099.44;;;1.34;53.65
59289;BME280;45056;47.602;9.886;2024-01-16T10:17:00;92099.22;;;1.48;53.40
59289;BME280;45056;47.602;9.886;2024-01-16T10:19:32;92090.19;;;1.66;52.52
59289;BME280;45056;47.602;9.886;2024-01-16T10:22:04;92094.16;;;1.81;52.31
59289;BME280;45056;47.602;9.886;2024-01-16T10:24:34;92087.44;;;1.97;51.33
59289;BME280;45056;47.602;9.886;2024-01-16T10:27:03;92085.31;;;2.08;51.10
59289;BME280;45056;47.602;9.886;2024-01-16T10:29:32;92080.09;;;2.25;50.87
59289;BME280;45056;47.602;9.886;2024-01-16T10:32:00;92082.16;;;2.37;50.63
59289;BME280;45056;47.602;9.886;2024-01-16T10:34:28;92088.53;;;2.47;50.31
59289;BME280;45056;47.602;9.886;2024-01-16T10:36:59;92089.91;;;2.55;50.16
59289;BME280;45056;47.602;9.886;2024-01-16T10:39:27;92081.31;;;2.64;49.73
59289;BME280;45056;47.602;9.886;2024-01-16T10:41:57;92077.28;;;2.76;49.50
59289;BME280;45056;47.602;9.886;2024-01-16T10:44:25;92065.84;;;2.92;49.21
59289;BME280;45056;47.602;9.886;2024-01-16T10:47:10;92070.56;;;3.05;49.21
59289;BME280;45056;47.602;9.886;2024-01-16T10:49:39;92072.66;;;3.17;48.26
59289;BME280;45056;47.602;9.886;2024-01-16T10:52:10;92072.50;;;3.24;48.54
59289;BME280;45056;47.602;9.886;2024-01-16T10:54:41;92067.66;;;3.36;48.06
59289;BME280;45056;47.602;9.886;2024-01-16T10:57:13;92068.25;;;3.43;47.50
59289;BME280;45056;47.602;9.886;2024-01-16T10:59:50;92071.97;;;3.50;47.35
59289;BME280;45056;47.602;9.886;2024-01-16T11:02:35;92069.53;;;3.55;47.46
59289;BME280;45056;47.602;9.886;2024-01-16T11:05:10;92069.22;;;3.53;46.96
59289;BME280;45056;47.602;9.886;2024-01-16T11:07:41;92063.72;;;3.40;47.32
59289;BME280;45056;47.602;9.886;2024-01-16T11:10:12;92063.25;;;3.25;47.86
59289;BME280;45056;47.602;9.886;2024-01-16T11:12:42;92059.63;;;3.15;48.19
59289;BME280;45056;47.602;9.886;2024-01-16T11:15:11;92066.59;;;3.13;48.36
59289;BME280;45056;47.602;9.886;2024-01-16T11:17:44;92062.38;;;3.12;48.29
59289;BME280;45056;47.602;9.886;2024-01-16T11:20:13;92053.91;;;3.13;48.34
59289;BME280;45056;47.602;9.886;2024-01-16T11:22:43;92058.09;;;3.14;48.24
59289;BME280;45056;47.602;9.886;2024-01-16T11:25:14;92059.94;;;3.17;48.33
59289;BME280;45056;47.602;9.886;2024-01-16T11:27:46;92060.91;;;3.27;47.94
59289;BME280;45056;47.602;9.886;2024-01-16T11:30:30;92048.97;;;3.28;47.99
59289;BME280;45056;47.602;9.886;2024-01-16T11:32:59;92041.69;;;3.29;48.21
59289;BME280;45056;47.602;9.886;2024-01-16T11:35:35;92044.38;;;3.29;47.96
59289;BME280;45056;47.602;9.886;2024-01-16T11:38:07;92037.38;;;3.31;48.10
59289;BME280;45056;47.602;9.886;2024-01-16T11:40:37;92039.59;;;3.37;47.87
59289;BME280;45056;47.602;9.886;2024-01-16T11:43:36;92032.47;;;3.46;47.67
59289;BME280;45056;47.602;9.886;2024-01-16T11:46:06;92033.41;;;3.56;47.68
59289;BME280;45056;47.602;9.886;2024-01-16T11:48:35;92029.38;;;3.65;47.55
59289;BME280;45056;47.602;9.886;2024-01-16T11:51:23;92023.91;;;3.68;47.29
59289;BME280;45056;47.602;9.886;2024-01-16T11:53:50;92020.13;;;3.66;47.19
59289;BME280;45056;47.602;9.886;2024-01-16T12:00:01;92017.25;;;3.56;47.43
59289;BME280;45056;47.602;9.886;2024-01-16T12:02:52;92020.03;;;3.53;47.07
59289;BME280;45056;47.602;9.886;2024-01-16T12:05:21;92010.69;;;3.41;47.14
59289;BME280;45056;47.602;9.886;2024-01-16T12:07:51;92010.59;;;3.28;47.52
59289;BME280;45056;47.602;9.886;2024-01-16T12:10:22;91996.13;;;3.22;47.63
59289;BME280;45056;47.602;9.886;2024-01-16T12:12:57;91995.38;;;3.21;47.82
59289;BME280;45056;47.602;9.886;2024-01-16T12:15:27;92001.16;;;3.20;47.66
59289;BME280;45056;47.602;9.886;2024-01-16T12:17:56;92008.97;;;3.14;47.63
59289;BME280;45056;47.602;9.886;2024-01-16T12:20:26;91999.47;;;3.09;47.74
59289;BME280;45056;47.602;9.886;2024-01-16T12:22:58;91996.09;;;3.05;48.11
59289;BME280;45056;47.602;9.886;2024-01-16T12:25:30;91996.84;;;3.06;48.39
59289;BME280;45056;47.602;9.886;2024-01-16T12:28:00;91988.22;;;3.14;48.46
59289;BME280;45056;47.602;9.886;2024-01-16T12:30:32;91988.94;;;3.35;48.85
59289;BME280;45056;47.602;9.886;2024-01-16T12:33:06;91989.00;;;3.65;48.62
59289;BME280;45056;47.602;9.886;2024-01-16T12:35:35;91969.50;;;3.94;48.16
59289;BME280;45056;47.602;9.886;2024-01-16T12:38:05;91963.59;;;4.15;47.15
59289;BME280;45056;47.602;9.886;2024-01-16T12:40:37;91972.09;;;4.43;47.26
59289;BME280;45056;47.602;9.886;2024-01-16T12:43:08;91968.63;;;4.72;46.41
59289;BME280;45056;47.602;9.886;2024-01-16T12:45:38;91962.94;;;4.96;45.74
59289;BME280;45056;47.602;9.886;2024-01-16T12:48:07;91970.84;;;5.16;44.70
59289;BME280;45056;47.602;9.886;2024-01-16T12:50:35;91958.75;;;5.34;44.09
59289;BME280;45056;47.602;9.886;2024-01-16T12:53:07;91952.09;;;5.52;43.38
59289;BME280;45056;47.602;9.886;2024-01-16T12:55:38;91956.91;;;5.70;43.21
59289;BME280;45056;47.602;9.886;2024-01-16T12:58:15;91950.06;;;5.91;42.93
59289;BME280;45056;47.602;9.886;2024-01-16T13:00:47;91948.00;;;6.08;42.29
59289;BME280;45056;47.602;9.886;2024-01-16T13:03:16;91945.69;;;6.19;41.67
59289;BME280;45056;47.602;9.886;2024-01-16T13:05:46;91945.16;;;6.25;41.83
59289;BME280;45056;47.602;9.886;2024-01-16T13:08:23;91942.09;;;6.23;41.79
59289;BME280;45056;47.602;9.886;2024-01-16T13:11:06;91941.47;;;6.18;41.31
59289;BME280;45056;47.602;9.886;2024-01-16T13:13:36;91942.91;;;6.10;41.34
59289;BME280;45056;47.602;9.886;2024-01-16T13:16:06;91938.81;;;6.05;41.65
59289;BME280;45056;47.602;9.886;2024-01-16T13:18:34;91925.75;;;6.04;41.69
59289;BME280;45056;47.602;9.886;2024-01-16T13:21:02;91927.81;;;6.00;41.64